sensor_id;sensor_type;location;lat;lon;timestamp;pressure;altitude;pressure_sealevel;temperature;humidity
71621;BME280;59471;42.254;23.102;2023-05-08T00:00:56;96062.66;;;12.65;79.37
71621;BME280;59471;42.254;23.102;2023-05-08T00:03:23;96059.38;;;12.78;78.34
71621;BME280;59471;42.254;23.102;2023-05-08T00:05:49;96067.69;;;12.81;78.66
71621;BME280;59471;42.254;23.102;2023-05-08T00:08:14;96066.38;;;12.70;78.51
71621;BME280;59471;42.254;23.102;2023-05-08T00:10:40;96062.66;;;12.65;79.14
71621;BME280;59471;42.254;23.102;2023-05-08T00:13:05;96058.38;;;12.64;78.64
71621;BME280;59471;42.254;23.102;2023-05-08T00:15:31;96063.84;;;12.62;78.68
71621;BME280;59471;42.254;23.102;2023-05-08T00:17:56;96059.91;;;12.07;81.32
71621;BME280;59471;42.254;23.102;2023-05-08T00:20:22;96060.25;;;12.04;81.61
71621;BME280;59471;42.254;23.102;2023-05-08T00:22:48;96066.16;;;12.21;79.92
71621;BME280;59471;42.254;23.102;2023-05-08T00:25:13;96069.59;;;12.21;79.71
71621;BME280;59471;42.254;23.102;2023-05-08T00:27:39;96068.13;;;12.34;79.16
71621;BME280;59471;42.254;23.102;2023-05-08T00:30:06;96069.31;;;12.16;79.74
71621;BME280;59471;42.254;23.102;2023-05-08T00:32:32;96063.34;;;11.93;80.38
71621;BME280;59471;42.254;23.102;2023-05-08T00:34:57;96071.06;;;11.71;82.04
71621;BME280;59471;42.254;23.102;2023-05-08T00:37:23;96076.13;;;12.11;80.38
71621;BME280;59471;42.254;23.102;2023-05-08T00:39:48;96078.56;;;12.12;79.96
71621;BME280;59471;42.254;23.102;2023-05-08T00:42:14;96083.25;;;12.17;79.50
71621;BME280;59471;42.254;23.102;2023-05-08T00:44:40;96089.88;;;12.13;79.10
71621;BME280;59471;42.254;23.102;2023-05-08T00:47:06;96084.13;;;11.79;79.97
71621;BME280;59471;42.254;23.102;2023-05-08T00:49:33;96087.50;;;12.03;79.89
71621;BME280;59471;42.254;23.102;2023-05-08T00:52:01;96076.94;;;12.11;78.82
71621;BME280;59471;42.254;23.102;2023-05-08T00:54:28;96085.34;;;11.54;81.05
71621;BME280;59471;42.254;23.102;2023-05-08T00:56:54;96087.97;;;11.69;81.02
71621;BME280;59471;42.254;23.102;2023-05-08T00:59:20;96087.63;;;11.72;80.30
71621;BME280;59471;42.254;23.102;2023-05-08T01:01:47;96086.75;;;11.42;81.72
71621;BME280;59471;42.254;23.102;2023-05-08T01:04:13;96098.38;;;11.62;81.00
71621;BME280;59471;42.254;23.102;2023-05-08T01:06:39;96092.75;;;11.27;82.98
71621;BME280;59471;42.254;23.102;2023-05-08T01:09:05;96093.19;;;11.31;82.57
71621;BME280;59471;42.254;23.102;2023-05-08T01:11:37;96083.34;;;11.56;81.40
71621;BME280;59471;42.254;23.102;2023-05-08T01:14:19;96076.25;;;11.42;81.06
71621;BME280;59471;42.254;23.102;2023-05-08T01:22:59;96093.72;;;11.49;81.18
71621;BME280;59471;42.254;23.102;2023-05-08T01:32:13;96087.97;;;11.54;79.61
71621;BME280;59471;42.254;23.102;2023-05-08T01:35:02;96085.44;;;11.37;80.39
71621;BME280;59471;42.254;23.102;2023-05-08T02:03:33;96083.16;;;11.20;81.77
71621;BME280;59471;42.254;23.102;2023-05-08T02:06:00;96085.47;;;10.92;82.79
71621;BME280;59471;42.254;23.102;2023-05-08T02:08:28;96082.66;;;10.93;82.74
71621;BME280;59471;42.254;23.102;2023-05-08T02:10:56;96078.13;;;11.10;82.39
71621;BME280;59471;42.254;23.102;2023-05-08T02:13:24;96086.50;;;11.05;82.61
71621;BME280;59471;42.254;23.102;2023-05-08T02:15:53;96087.31;;;10.83;84.04
71621;BME280;59471;42.254;23.102;2023-05-08T02:18:20;96088.66;;;11.02;83.75
71621;BME280;59471;42.254;23.102;2023-05-08T02:20:50;96085.91;;;10.95;83.59
71621;BME280;59471;42.254;23.102;2023-05-08T02:23:21;96090.63;;;11.00;83.32
71621;BME280;59471;42.254;23.102;2023-05-08T02:25:48;96087.19;;;11.22;82.55
71621;BME280;59471;42.254;23.102;2023-05-08T02:28:15;96091.75;;;11.28;81.51
71621;BME280;59471;42.254;23.102;2023-05-08T02:30:43;96101.66;;;11.18;82.00
71621;BME280;59471;42.254;23.102;2023-05-08T02:33:10;96100.84;;;11.18;82.20
71621;BME280;59471;42.254;23.102;2023-05-08T02:35:38;96099.34;;;11.23;82.31
71621;BME280;59471;42.254;23.102;2023-05-08T02:38:05;96098.69;;;11.21;82.65
71621;BME280;59471;42.254;23.102;2023-05-08T02:40:35;96096.88;;;11.22;82.60
71621;BME280;59471;42.254;23.102;2023-05-08T02:43:04;96093.69;;;10.80;83.71
71621;BME280;59471;42.254;23.102;2023-05-08T02:45:40;96098.44;;;11.08;82.19
71621;BME280;59471;42.254;23.102;2023-05-08T02:48:40;96099.69;;;11.20;82.29
71621;BME280;59471;42.254;23.102;2023-05-08T02:51:36;96103.69;;;11.08;81.56
71621;BME280;59471;42.254;23.102;2023-05-08T02:54:10;96094.44;;;10.97;82.98
71621;BME280;59471;42.254;23.102;2023-05-08T02:56:58;96093.16;;;11.16;82.16
71621;BME280;59471;42.254;23.102;2023-05-08T02:59:32;96091.16;;;11.18;82.12
71621;BME280;59471;42.254;23.102;2023-05-08T03:02:14;96096.22;;;10.97;82.36
71621;BME280;59471;42.254;23.102;2023-05-08T03:05:04;96104.50;;;11.08;81.93
71621;BME280;59471;42.254;23.102;2023-05-08T03:07:37;96106.28;;;10.85;83.30
71621;BME280;59471;42.254;23.102;2023-05-08T03:10:04;96093.00;;;10.86;83.36
71621;BME280;59471;42.254;23.102;2023-05-08T03:12:37;96110.97;;;10.98;82.64
71621;BME280;59471;42.254;23.102;2023-05-08T03:15:13;96110.28;;;11.04;82.32
71621;BME280;59471;42.254;23.102;2023-05-08T03:17:45;96101.31;;;10.98;82.58
71621;BME280;59471;42.254;23.102;2023-05-08T03:20:15;96108.81;;;11.01;82.94
71621;BME280;59471;42.254;23.102;2023-05-08T03:22:42;96110.91;;;11.06;82.32
71621;BME280;59471;42.254;23.102;2023-05-08T03:25:10;96111.91;;;11.05;83.13
71621;BME280;59471;42.254;23.102;2023-05-08T03:27:38;96112.47;;;10.92;82.75
71621;BME280;59471;42.254;23.102;2023-05-08T03:30:05;96113.53;;;11.06;82.42
71621;BME280;59471;42.254;23.102;2023-05-08T03:32:33;96111.03;;;11.12;82.12
71621;BME280;59471;42.254;23.102;2023-05-08T03:35:00;96105.31;;;11.09;82.05
71621;BME280;59471;42.254;23.102;2023-05-08T03:37:27;96108.00;;;11.01;82.62
71621;BME280;59471;42.254;23.102;2023-05-08T03:39:53;96115.88;;;11.01;83.38
71621;BME280;59471;42.254;23.102;2023-05-08T03:42:23;96115.63;;;11.33;81.28
71621;BME280;59471;42.254;23.102;2023-05-08T03:44:50;96112.31;;;11.40;80.85
71621;BME280;59471;42.254;23.102;2023-05-08T03:47:17;96118.59;;;11.30;82.48
71621;BME280;59471;42.254;23.102;2023-05-08T03:49:47;96118.75;;;11.06;83.28
71621;BME280;59471;42.254;23.102;2023-05-08T03:52:15;96121.69;;;11.11;83.91
71621;BME280;59471;42.254;23.102;2023-05-08T03:54:40;96126.00;;;11.27;82.60
71621;BME280;59471;42.254;23.102;2023-05-08T03:57:07;96127.41;;;11.37;82.02
71621;BME280;59471;42.254;23.102;2023-05-08T04:06:01;96124.03;;;11.52;82.34
71621;BME280;59471;42.254;23.102;2023-05-08T04:08:33;96133.25;;;11.48;83.64
71621;BME280;59471;42.254;23.102;2023-05-08T04:14:15;96132.97;;;11.80;81.66
71621;BME280;59471;42.254;23.102;2023-05-08T04:16:50;96130.91;;;11.76;82.02
71621;BME280;59471;42.254;23.102;2023-05-08T04:19:23;96138.91;;;11.97;81.10
71621;BME280;59471;42.254;23.102;2023-05-08T04:21:55;96143.75;;;12.23;79.54
71621;BME280;59471;42.254;23.102;2023-05-08T04:24:24;96145.19;;;12.41;78.57
71621;BME280;59471;42.254;23.102;2023-05-08T04:26:50;96146.03;;;12.56;78.14
71621;BME280;59471;42.254;23.102;2023-05-08T04:29:16;96138.31;;;12.40;79.39
71621;BME280;59471;42.254;23.102;2023-05-08T04:31:42;96149.19;;;12.66;79.14
71621;BME280;59471;42.254;23.102;2023-05-08T04:34:08;96142.66;;;12.62;78.76
71621;BME280;59471;42.254;23.102;2023-05-08T04:36:34;96151.63;;;12.68;77.56
71621;BME280;59471;42.254;23.102;2023-05-08T04:38:59;96148.72;;;12.78;75.83
71621;BME280;59471;42.254;23.102;2023-05-08T04:41:25;96141.56;;;12.71;75.56
71621;BME280;59471;42.254;23.102;2023-05-08T04:43:52;96146.94;;;12.48;76.50
71621;BME280;59471;42.254;23.102;2023-05-08T04:46:18;96142.69;;;12.33;77.26
71621;BME280;59471;42.254;23.102;2023-05-08T04:48:43;96136.44;;;12.48;77.37
71621;BME280;59471;42.254;23.102;2023-05-08T04:51:09;96138.28;;;12.69;75.83
71621;BME280;59471;42.254;23.102;2023-05-08T04:53:35;96136.56;;;12.76;75.62
71621;BME280;59471;42.254;23.102;2023-05-08T04:56:00;96134.69;;;12.70;75.86
71621;BME280;59471;42.254;23.102;2023-05-08T04:58:26;96132.88;;;12.71;75.64
71621;BME280;59471;42.254;23.102;2023-05-08T05:00:53;96134.69;;;12.70;76.79
71621;BME280;59471;42.254;23.102;2023-05-08T05:03:18;96137.94;;;12.72;76.02
71621;BME280;59471;42.254;23.102;2023-05-08T05:05:44;96131.84;;;12.87;75.95
71621;BME280;59471;42.254;23.102;2023-05-08T05:08:09;96129.91;;;12.95;75.67
71621;BME280;59471;42.254;23.102;2023-05-08T05:10:37;96121.75;;;13.05;75.46
71621;BME280;59471;42.254;23.102;2023-05-08T05:13:03;96119.00;;;13.13;75.80
71621;BME280;59471;42.254;23.102;2023-05-08T05:15:29;96113.88;;;13.27;75.89
71621;BME280;59471;42.254;23.102;2023-05-08T05:17:55;96108.25;;;13.30;76.68
71621;BME280;59471;42.254;23.102;2023-05-08T05:20:20;96110.13;;;13.57;76.74
71621;BME280;59471;42.254;23.102;2023-05-08T05:22:46;96108.63;;;13.70;76.30
71621;BME280;59471;42.254;23.102;2023-05-08T05:25:11;96104.69;;;13.87;75.35
71621;BME280;59471;42.254;23.102;2023-05-08T05:27:37;96105.97;;;13.91;74.50
71621;BME280;59471;42.254;23.102;2023-05-08T05:30:02;96109.31;;;14.06;72.72
71621;BME280;59471;42.254;23.102;2023-05-08T05:32:28;96111.00;;;14.21;71.58
71621;BME280;59471;42.254;23.102;2023-05-08T05:34:54;96109.03;;;14.29;70.73
71621;BME280;59471;42.254;23.102;2023-05-08T05:37:20;96106.50;;;14.14;71.94
71621;BME280;59471;42.254;23.102;2023-05-08T05:39:47;96108.69;;;14.39;70.36
71621;BME280;59471;42.254;23.102;2023-05-08T05:42:12;96109.94;;;14.50;70.33
71621;BME280;59471;42.254;23.102;2023-05-08T05:44:38;96106.84;;;14.68;70.12
71621;BME280;59471;42.254;23.102;2023-05-08T05:47:04;96115.44;;;14.90;68.59
71621;BME280;59471;42.254;23.102;2023-05-08T05:49:29;96103.88;;;14.97;68.24
71621;BME280;59471;42.254;23.102;2023-05-08T05:51:55;96099.22;;;14.93;69.00
71621;BME280;59471;42.254;23.102;2023-05-08T05:54:21;96106.19;;;15.14;66.59
71621;BME280;59471;42.254;23.102;2023-05-08T05:56:46;96109.84;;;15.19;67.02
71621;BME280;59471;42.254;23.102;2023-05-08T05:59:12;96111.50;;;15.34;68.02
71621;BME280;59471;42.254;23.102;2023-05-08T06:01:38;96113.16;;;15.48;67.29
71621;BME280;59471;42.254;23.102;2023-05-08T06:04:03;96107.03;;;15.34;68.52
71621;BME280;59471;42.254;23.102;2023-05-08T06:06:29;96105.84;;;15.57;66.47
71621;BME280;59471;42.254;23.102;2023-05-08T06:08:56;96103.41;;;15.55;68.02
71621;BME280;59471;42.254;23.102;2023-05-08T06:11:22;96100.38;;;15.65;67.93
71621;BME280;59471;42.254;23.102;2023-05-08T06:13:48;96101.81;;;15.61;69.54
71621;BME280;59471;42.254;23.102;2023-05-08T06:16:13;96105.91;;;15.70;70.11
71621;BME280;59471;42.254;23.102;2023-05-08T06:18:39;96109.94;;;16.06;70.11
71621;BME280;59471;42.254;23.102;2023-05-08T06:21:05;96108.31;;;16.05;67.91
71621;BME280;59471;42.254;23.102;2023-05-08T06:23:31;96099.78;;;15.76;68.45
71621;BME280;59471;42.254;23.102;2023-05-08T06:25:57;96104.66;;;16.06;68.92
71621;BME280;59471;42.254;23.102;2023-05-08T06:28:22;96103.00;;;15.65;69.18
71621;BME280;59471;42.254;23.102;2023-05-08T06:30:50;96110.75;;;16.06;68.11
71621;BME280;59471;42.254;23.102;2023-05-08T06:33:17;96108.31;;;16.18;68.45
71621;BME280;59471;42.254;23.102;2023-05-08T06:35:46;96110.31;;;16.29;66.45
71621;BME280;59471;42.254;23.102;2023-05-08T06:38:12;96108.31;;;15.91;67.57
71621;BME280;59471;42.254;23.102;2023-05-08T06:40:44;96108.31;;;16.11;68.29
71621;BME280;59471;42.254;23.102;2023-05-08T06:43:10;96101.38;;;16.17;67.11
71621;BME280;59471;42.254;23.102;2023-05-08T06:45:37;96108.25;;;16.38;66.83
71621;BME280;59471;42.254;23.102;2023-05-08T06:48:03;96108.19;;;16.58;66.24
71621;BME280;59471;42.254;23.102;2023-05-08T06:50:28;96118.81;;;16.44;67.41
71621;BME280;59471;42.254;23.102;2023-05-08T06:52:55;96118.47;;;16.14;67.69
71621;BME280;59471;42.254;23.102;2023-05-08T06:55:21;96111.97;;;16.04;68.89
71621;BME280;59471;42.254;23.102;2023-05-08T06:57:46;96106.69;;;15.84;69.26
71621;BME280;59471;42.254;23.102;2023-05-08T07:00:12;96112.16;;;16.15;68.75
71621;BME280;59471;42.254;23.102;2023-05-08T07:02:38;96110.22;;;16.62;68.30
71621;BME280;59471;42.254;23.102;2023-05-08T07:05:04;96109.97;;;16.71;66.99
71621;BME280;59471;42.254;23.102;2023-05-08T07:07:30;96110.19;;;16.82;65.54
71621;BME280;59471;42.254;23.102;2023-05-08T07:09:55;96105.91;;;16.75;66.24
71621;BME280;59471;42.254;23.102;2023-05-08T07:12:21;96105.84;;;16.95;66.00
71621;BME280;59471;42.254;23.102;2023-05-08T07:14:46;96105.66;;;16.89;65.51
71621;BME280;59471;42.254;23.102;2023-05-08T07:17:12;96110.63;;;16.66;65.66
71621;BME280;59471;42.254;23.102;2023-05-08T07:19:37;96117.38;;;16.55;67.28
71621;BME280;59471;42.254;23.102;2023-05-08T07:22:03;96115.97;;;16.53;68.08
71621;BME280;59471;42.254;23.102;2023-05-08T07:24:29;96110.22;;;16.62;65.90
71621;BME280;59471;42.254;23.102;2023-05-08T07:26:56;96113.56;;;17.03;65.21
71621;BME280;59471;42.254;23.102;2023-05-08T07:29:24;96105.56;;;17.48;63.28
71621;BME280;59471;42.254;23.102;2023-05-08T07:31:52;96101.63;;;17.57;63.02
71621;BME280;59471;42.254;23.102;2023-05-08T07:34:18;96102.69;;;17.81;63.05
71621;BME280;59471;42.254;23.102;2023-05-08T07:36:44;96101.94;;;17.99;63.03
71621;BME280;59471;42.254;23.102;2023-05-08T07:39:09;96100.81;;;18.13;62.39
71621;BME280;59471;42.254;23.102;2023-05-08T07:41:35;96094.31;;;18.27;62.94
71621;BME280;59471;42.254;23.102;2023-05-08T07:44:01;96093.34;;;17.78;62.75
71621;BME280;59471;42.254;23.102;2023-05-08T07:46:27;96090.84;;;18.09;61.66
71621;BME280;59471;42.254;23.102;2023-05-08T07:48:53;96091.06;;;18.07;62.25
71621;BME280;59471;42.254;23.102;2023-05-08T07:51:18;96080.25;;;18.27;62.05
71621;BME280;59471;42.254;23.102;2023-05-08T07:53:44;96084.72;;;18.08;62.69
71621;BME280;59471;42.254;23.102;2023-05-08T07:56:10;96083.66;;;18.52;61.21
71621;BME280;59471;42.254;23.102;2023-05-08T07:58:35;96095.38;;;18.45;60.61
71621;BME280;59471;42.254;23.102;2023-05-08T08:01:01;96095.59;;;18.43;60.85
71621;BME280;59471;42.254;23.102;2023-05-08T08:03:27;96086.94;;;18.73;59.49
71621;BME280;59471;42.254;23.102;2023-05-08T08:05:53;96079.41;;;19.18;58.49
71621;BME280;59471;42.254;23.102;2023-05-08T08:08:19;96085.16;;;19.45;58.58
71621;BME280;59471;42.254;23.102;2023-05-08T08:10:45;96080.25;;;19.31;57.45
71621;BME280;59471;42.254;23.102;2023-05-08T08:13:11;96075.84;;;19.25;56.90
71621;BME280;59471;42.254;23.102;2023-05-08T08:15:36;96078.00;;;19.16;57.96
71621;BME280;59471;42.254;23.102;2023-05-08T08:18:02;96090.72;;;19.26;57.54
71621;BME280;59471;42.254;23.102;2023-05-08T08:20:27;96090.31;;;19.10;57.29
71621;BME280;59471;42.254;23.102;2023-05-08T08:22:53;96086.53;;;18.88;58.81
71621;BME280;59471;42.254;23.102;2023-05-08T08:25:19;96081.69;;;19.15;56.50
71621;BME280;59471;42.254;23.102;2023-05-08T08:27:45;96082.03;;;18.88;57.49
71621;BME280;59471;42.254;23.102;2023-05-08T08:30:10;96072.41;;;18.75;58.32
71621;BME280;59471;42.254;23.102;2023-05-08T08:32:36;96082.25;;;19.05;58.07
71621;BME280;59471;42.254;23.102;2023-05-08T08:35:01;96073.44;;;19.23;59.16
71621;BME280;59471;42.254;23.102;2023-05-08T08:37:27;96079.00;;;19.33;57.43
71621;BME280;59471;42.254;23.102;2023-05-08T08:39:53;96075.72;;;19.19;57.99
71621;BME280;59471;42.254;23.102;2023-05-08T08:42:19;96076.91;;;19.24;57.92
71621;BME280;59471;42.254;23.102;2023-05-08T08:44:44;96080.31;;;19.12;58.25
71621;BME280;59471;42.254;23.102;2023-05-08T08:47:10;96085.97;;;18.86;59.98
71621;BME280;59471;42.254;23.102;2023-05-08T08:49:48;96084.03;;;18.93;60.48
71621;BME280;59471;42.254;23.102;2023-05-08T08:55:09;96086.09;;;18.91;59.62
71621;BME280;59471;42.254;23.102;2023-05-08T08:57:50;96090.22;;;18.68;59.78
71621;BME280;59471;42.254;23.102;2023-05-08T09:00:21;96089.25;;;18.63;59.53
71621;BME280;59471;42.254;23.102;2023-05-08T09:02:48;96086.53;;;18.69;59.58
71621;BME280;59471;42.254;23.102;2023-05-08T09:05:14;96088.25;;;18.82;59.61
71621;BME280;59471;42.254;23.102;2023-05-08T09:07:39;96085.97;;;18.86;60.03
71621;BME280;59471;42.254;23.102;2023-05-08T09:10:08;96083.00;;;18.75;59.89
71621;BME280;59471;42.254;23.102;2023-05-08T09:12:39;96089.44;;;18.86;60.07
71621;BME280;59471;42.254;23.102;2023-05-08T09:15:05;96088.56;;;18.74;60.65
71621;BME280;59471;42.254;23.102;2023-05-08T09:17:31;96093.56;;;18.82;59.81
71621;BME280;59471;42.254;23.102;2023-05-08T09:19:57;96096.84;;;18.96;60.45
71621;BME280;59471;42.254;23.102;2023-05-08T09:22:23;96103.03;;;19.08;60.86
71621;BME280;59471;42.254;23.102;2023-05-08T09:24:59;96089.53;;;19.10;61.04
71621;BME280;59471;42.254;23.102;2023-05-08T09:27:28;96080.91;;;19.26;60.58
71621;BME280;59471;42.254;23.102;2023-05-08T09:30:08;96088.34;;;19.66;60.44
71621;BME280;59471;42.254;23.102;2023-05-08T09:32:39;96083.72;;;19.73;59.30
71621;BME280;59471;42.254;23.102;2023-05-08T09:35:07;96087.00;;;19.87;59.38
71621;BME280;59471;42.254;23.102;2023-05-08T09:37:37;96082.59;;;20.04;59.09
71621;BME280;59471;42.254;23.102;2023-05-08T09:40:20;96092.84;;;19.65;59.96
71621;BME280;59471;42.254;23.102;2023-05-08T09:42:47;96080.84;;;19.98;59.91
71621;BME280;59471;42.254;23.102;2023-05-08T09:45:30;96076.22;;;19.82;60.36
71621;BME280;59471;42.254;23.102;2023-05-08T09:47:57;96076.34;;;19.75;61.23
71621;BME280;59471;42.254;23.102;2023-05-08T09:50:22;96079.41;;;19.60;60.71
71621;BME280;59471;42.254;23.102;2023-05-08T09:52:49;96071.44;;;19.60;60.98
71621;BME280;59471;42.254;23.102;2023-05-08T09:55:15;96065.06;;;19.50;61.77
71621;BME280;59471;42.254;23.102;2023-05-08T09:58:10;96059.47;;;19.28;62.82
71621;BME280;59471;42.254;23.102;2023-05-08T10:00:37;96051.66;;;19.03;63.32
71621;BME280;59471;42.254;23.102;2023-05-08T10:03:03;96038.16;;;19.04;63.54
71621;BME280;59471;42.254;23.102;2023-05-08T10:05:34;96039.13;;;18.91;64.94
71621;BME280;59471;42.254;23.102;2023-05-08T10:08:22;96030.88;;;18.99;66.04
71621;BME280;59471;42.254;23.102;2023-05-08T10:10:48;96025.00;;;19.09;68.52
71621;BME280;59471;42.254;23.102;2023-05-08T10:13:14;96021.84;;;19.01;67.83
71621;BME280;59471;42.254;23.102;2023-05-08T10:15:43;96017.38;;;19.01;68.37
71621;BME280;59471;42.254;23.102;2023-05-08T10:18:09;96012.31;;;19.11;69.27
71621;BME280;59471;42.254;23.102;2023-05-08T10:20:39;96005.97;;;19.12;68.97
71621;BME280;59471;42.254;23.102;2023-05-08T10:23:07;96001.50;;;19.25;69.50
71621;BME280;59471;42.254;23.102;2023-05-08T10:25:41;95996.44;;;19.35;68.96
71621;BME280;59471;42.254;23.102;2023-05-08T10:28:22;95996.03;;;19.73;63.75
71621;BME280;59471;42.254;23.102;2023-05-08T10:31:01;96003.19;;;19.73;60.58
71621;BME280;59471;42.254;23.102;2023-05-08T10:33:33;96008.03;;;19.64;64.39
71621;BME280;59471;42.254;23.102;2023-05-08T10:36:00;96003.22;;;19.96;61.78
71621;BME280;59471;42.254;23.102;2023-05-08T10:38:26;96001.22;;;19.91;62.44
71621;BME280;59471;42.254;23.102;2023-05-08T10:40:58;96001.00;;;19.81;62.88
71621;BME280;59471;42.254;23.102;2023-05-08T10:43:28;96001.94;;;19.75;63.53
71621;BME280;59471;42.254;23.102;2023-05-08T10:45:56;96000.66;;;20.01;63.16
71621;BME280;59471;42.254;23.102;2023-05-08T10:57:18;95998.69;;;19.97;55.80
71621;BME280;59471;42.254;23.102;2023-05-08T10:59:45;95989.59;;;19.81;57.32
71621;BME280;59471;42.254;23.102;2023-05-08T11:02:11;95990.47;;;19.98;54.08
71621;BME280;59471;42.254;23.102;2023-05-08T11:04:37;95987.25;;;19.84;57.31
71621;BME280;59471;42.254;23.102;2023-05-08T11:07:03;95981.34;;;19.94;55.83
71621;BME280;59471;42.254;23.102;2023-05-08T11:12:19;95972.03;;;20.32;57.99
71621;BME280;59471;42.254;23.102;2023-05-08T11:15:01;95974.28;;;20.92;57.26
71621;BME280;59471;42.254;23.102;2023-05-08T11:17:27;95966.53;;;20.91;55.11
71621;BME280;59471;42.254;23.102;2023-05-08T11:19:57;95965.75;;;21.24;52.62
71621;BME280;59471;42.254;23.102;2023-05-08T11:22:34;95963.22;;;21.63;53.28
71621;BME280;59471;42.254;23.102;2023-05-08T11:25:10;95952.28;;;22.20;51.18
71621;BME280;59471;42.254;23.102;2023-05-08T11:35:48;95937.72;;;23.04;49.13
71621;BME280;59471;42.254;23.102;2023-05-08T11:46:18;95913.53;;;21.95;46.91
71621;BME280;59471;42.254;23.102;2023-05-08T11:48:44;95922.47;;;22.23;47.51
71621;BME280;59471;42.254;23.102;2023-05-08T11:51:10;95914.91;;;22.64;44.13
71621;BME280;59471;42.254;23.102;2023-05-08T11:53:38;95911.06;;;23.09;45.01
71621;BME280;59471;42.254;23.102;2023-05-08T11:56:04;95909.34;;;22.43;44.03
71621;BME280;59471;42.254;23.102;2023-05-08T11:58:30;95904.13;;;23.08;45.65
71621;BME280;59471;42.254;23.102;2023-05-08T12:00:56;95904.94;;;23.51;44.73
71621;BME280;59471;42.254;23.102;2023-05-08T12:03:23;95910.31;;;23.93;42.39
71621;BME280;59471;42.254;23.102;2023-05-08T12:05:49;95902.13;;;23.68;43.33
71621;BME280;59471;42.254;23.102;2023-05-08T12:08:20;95892.94;;;24.01;39.77
71621;BME280;59471;42.254;23.102;2023-05-08T12:13:18;95893.34;;;23.72;42.65
71621;BME280;59471;42.254;23.102;2023-05-08T12:15:45;95890.13;;;22.41;42.42
71621;BME280;59471;42.254;23.102;2023-05-08T12:18:12;95890.41;;;22.72;42.07
71621;BME280;59471;42.254;23.102;2023-05-08T12:20:38;95886.69;;;23.38;44.57
71621;BME280;59471;42.254;23.102;2023-05-08T12:23:04;95884.53;;;24.35;41.06
71621;BME280;59471;42.254;23.102;2023-05-08T12:25:29;95888.06;;;24.50;38.96
71621;BME280;59471;42.254;23.102;2023-05-08T12:27:56;95883.56;;;25.02;39.40
71621;BME280;59471;42.254;23.102;2023-05-08T12:30:21;95876.00;;;24.48;40.72
71621;BME280;59471;42.254;23.102;2023-05-08T12:32:47;95873.84;;;23.77;41.50
71621;BME280;59471;42.254;23.102;2023-05-08T12:35:13;95871.19;;;24.45;43.90
71621;BME280;59471;42.254;23.102;2023-05-08T12:37:40;95864.81;;;24.82;39.07
71621;BME280;59471;42.254;23.102;2023-05-08T12:40:06;95857.16;;;24.12;44.03
71621;BME280;59471;42.254;23.102;2023-05-08T12:42:47;95854.69;;;23.10;42.04
71621;BME280;59471;42.254;23.102;2023-05-08T12:45:21;95846.78;;;23.26;41.35
71621;BME280;59471;42.254;23.102;2023-05-08T12:47:51;95841.69;;;22.87;43.44
71621;BME280;59471;42.254;23.102;2023-05-08T12:50:18;95837.00;;;22.99;43.83
71621;BME280;59471;42.254;23.102;2023-05-08T12:52:45;95832.28;;;22.79;44.29
71621;BME280;59471;42.254;23.102;2023-05-08T12:55:25;95830.50;;;22.58;43.40
71621;BME280;59471;42.254;23.102;2023-05-08T13:00:39;95820.78;;;22.19;44.62
71621;BME280;59471;42.254;23.102;2023-05-08T13:03:06;95828.31;;;23.19;43.95
71621;BME280;59471;42.254;23.102;2023-05-08T13:05:34;95827.63;;;23.81;42.64
71621;BME280;59471;42.254;23.102;2023-05-08T13:08:06;95830.88;;;23.94;42.93
71621;BME280;59471;42.254;23.102;2023-05-08T13:13:12;95824.59;;;24.46;43.05
71621;BME280;59471;42.254;23.102;2023-05-08T13:15:38;95813.81;;;24.20;41.68
71621;BME280;59471;42.254;23.102;2023-05-08T13:18:04;95807.50;;;24.57;43.35
71621;BME280;59471;42.254;23.102;2023-05-08T13:20:31;95797.31;;;24.54;42.19
71621;BME280;59471;42.254;23.102;2023-05-08T13:23:00;95798.34;;;24.38;41.49
71621;BME280;59471;42.254;23.102;2023-05-08T13:25:26;95795.69;;;24.99;41.60
71621;BME280;59471;42.254;23.102;2023-05-08T13:27:52;95792.34;;;23.95;42.33
71621;BME280;59471;42.254;23.102;2023-05-08T13:30:17;95785.44;;;24.09;41.09
71621;BME280;59471;42.254;23.102;2023-05-08T13:32:43;95789.69;;;24.05;41.40
71621;BME280;59471;42.254;23.102;2023-05-08T13:35:08;95789.25;;;24.39;42.30
71621;BME280;59471;42.254;23.102;2023-05-08T13:37:34;95779.34;;;24.34;41.86
71621;BME280;59471;42.254;23.102;2023-05-08T13:40:00;95773.16;;;24.18;41.70
71621;BME280;59471;42.254;23.102;2023-05-08T13:42:26;95784.25;;;23.69;42.22
71621;BME280;59471;42.254;23.102;2023-05-08T13:44:51;95787.03;;;24.00;42.83
71621;BME280;59471;42.254;23.102;2023-05-08T13:47:17;95793.81;;;23.12;40.83
71621;BME280;59471;42.254;23.102;2023-05-08T13:49:42;95800.91;;;22.97;42.78
71621;BME280;59471;42.254;23.102;2023-05-08T13:52:09;95799.25;;;22.90;41.47
71621;BME280;59471;42.254;23.102;2023-05-08T13:54:34;95809.50;;;22.99;43.14
71621;BME280;59471;42.254;23.102;2023-05-08T13:57:00;95804.13;;;22.66;42.04
71621;BME280;59471;42.254;23.102;2023-05-08T13:59:27;95800.44;;;22.40;43.05
71621;BME280;59471;42.254;23.102;2023-05-08T14:01:53;95800.56;;;22.29;43.83
71621;BME280;59471;42.254;23.102;2023-05-08T14:04:18;95816.84;;;22.54;45.37
71621;BME280;59471;42.254;23.102;2023-05-08T14:06:44;95838.19;;;22.27;47.51
71621;BME280;59471;42.254;23.102;2023-05-08T14:09:10;95857.44;;;22.29;50.66
71621;BME280;59471;42.254;23.102;2023-05-08T14:11:35;95864.50;;;20.85;54.95
71621;BME280;59471;42.254;23.102;2023-05-08T14:14:01;95886.38;;;19.54;60.94
71621;BME280;59471;42.254;23.102;2023-05-08T14:16:27;95880.59;;;18.45;62.00
71621;BME280;59471;42.254;23.102;2023-05-08T14:18:52;95888.09;;;17.63;69.60
71621;BME280;59471;42.254;23.102;2023-05-08T14:21:18;95885.47;;;17.19;70.68